createdAt,value
2022-08-20T00:00:02.391Z,45.60
2022-08-20T00:00:11.563Z,49.60
2022-08-20T00:00:21.589Z,46.50
2022-08-20T00:00:31.561Z,48.90
2022-08-20T00:00:41.578Z,44.10
2022-08-20T00:00:51.565Z,43.40
2022-08-20T00:01:02.589Z,42.80
2022-08-20T00:01:11.563Z,41.70
2022-08-20T00:01:21.565Z,43.30
2022-08-20T00:01:31.574Z,42.70
2022-08-20T00:01:41.579Z,43.80
2022-08-20T00:01:51.666Z,42.80
2022-08-20T00:02:01.675Z,45.50
2022-08-20T00:02:11.737Z,50.10
2022-08-20T00:02:21.555Z,46.40
2022-08-20T00:02:31.547Z,46.90
2022-08-20T00:02:41.562Z,46.30
2022-08-20T00:02:51.543Z,47.80
2022-08-20T00:03:01.557Z,45.10
2022-08-20T00:03:11.605Z,45.90
2022-08-20T00:03:21.546Z,44.80
2022-08-20T00:03:31.558Z,44.40
2022-08-20T00:03:41.563Z,42.70
2022-08-20T00:03:53.315Z,43.00
2022-08-20T00:04:01.745Z,42.20
2022-08-20T00:04:11.568Z,42.70
2022-08-20T00:04:21.550Z,43.60
2022-08-20T00:04:31.556Z,44.50
2022-08-20T00:04:41.545Z,44.20
2022-08-20T00:04:51.541Z,44.60
2022-08-20T00:05:01.560Z,46.00
2022-08-20T00:05:11.539Z,50.40
2022-08-20T00:05:21.541Z,46.80
2022-08-20T00:05:31.561Z,44.50
2022-08-20T00:05:41.535Z,44.00
2022-08-20T00:05:51.560Z,44.70
2022-08-20T00:06:02.398Z,46.50
2022-08-20T00:06:12.385Z,45.60
2022-08-20T00:06:21.624Z,47.30
2022-08-20T00:06:31.549Z,46.60
2022-08-20T00:06:41.532Z,45.00
2022-08-20T00:06:51.543Z,44.00
2022-08-20T00:07:01.539Z,45.30
2022-08-20T00:07:11.533Z,49.20
2022-08-20T00:07:21.609Z,45.80
2022-08-20T00:07:31.533Z,44.60
2022-08-20T00:07:41.525Z,45.10
2022-08-20T00:07:51.614Z,45.80
2022-08-20T00:08:01.543Z,44.70
2022-08-20T00:08:11.524Z,44.10
2022-08-20T00:08:21.527Z,44.20
2022-08-20T00:08:31.526Z,49.20
2022-08-20T00:08:41.553Z,46.60
2022-08-20T00:08:51.576Z,44.90
2022-08-20T00:09:01.528Z,43.30
2022-08-20T00:09:11.535Z,42.30
2022-08-20T00:09:21.540Z,43.60
2022-08-20T00:09:31.517Z,43.70
2022-08-20T00:09:41.658Z,44.60
2022-08-20T00:09:51.532Z,45.60
2022-08-20T00:10:01.567Z,51.90
2022-08-20T00:10:12.389Z,56.20
2022-08-20T00:10:21.567Z,47.10
2022-08-20T00:10:31.512Z,45.10
2022-08-20T00:10:41.519Z,44.00
2022-08-20T00:10:55.556Z,44.60
2022-08-20T00:11:01.518Z,44.40
2022-08-20T00:11:11.508Z,42.90
2022-08-20T00:11:21.520Z,44.80
2022-08-20T00:11:31.511Z,43.40
2022-08-20T00:11:41.517Z,45.40
2022-08-20T00:11:51.535Z,43.30
2022-08-20T00:12:01.585Z,43.40
2022-08-20T00:12:11.524Z,44.20
2022-08-20T00:12:22.389Z,42.60
2022-08-20T00:12:31.536Z,43.40
2022-08-20T00:12:41.508Z,46.70
2022-08-20T00:12:51.504Z,53.60
2022-08-20T00:13:01.534Z,45.70
2022-08-20T00:13:11.509Z,43.60
2022-08-20T00:13:21.536Z,43.60
2022-08-20T00:13:31.520Z,44.60
2022-08-20T00:13:41.503Z,43.40
2022-08-20T00:13:51.507Z,42.70
2022-08-20T00:14:01.505Z,42.40
2022-08-20T00:14:11.507Z,42.90
2022-08-20T00:14:22.398Z,45.60
2022-08-20T00:14:31.591Z,47.10
2022-08-20T00:14:41.497Z,54.10
2022-08-20T00:14:51.492Z,44.20
2022-08-20T00:15:01.498Z,42.80
2022-08-20T00:15:11.522Z,42.70
2022-08-20T00:15:21.688Z,47.10
2022-08-20T00:15:31.527Z,45.40
2022-08-20T00:15:41.490Z,45.30
2022-08-20T00:15:51.561Z,45.60
2022-08-20T00:16:01.511Z,47.10
2022-08-20T00:16:11.483Z,52.50
2022-08-20T00:16:21.492Z,47.40
2022-08-20T00:16:31.503Z,44.90
2022-08-20T00:16:41.488Z,43.60
2022-08-20T00:16:51.494Z,44.80
2022-08-20T00:17:01.494Z,44.30
2022-08-20T00:17:11.516Z,43.50
2022-08-20T00:17:21.492Z,42.50
2022-08-20T00:17:31.478Z,44.00
2022-08-20T00:17:41.580Z,50.40
2022-08-20T00:17:51.566Z,54.00
2022-08-20T00:18:01.495Z,56.20
2022-08-20T00:18:12.413Z,43.90
2022-08-20T00:18:22.408Z,48.20
2022-08-20T00:18:31.539Z,49.10
2022-08-20T00:18:41.577Z,45.90
2022-08-20T00:18:51.486Z,43.50
2022-08-20T00:19:01.472Z,41.70
2022-08-20T00:19:11.499Z,43.80
2022-08-20T00:19:21.474Z,45.10
2022-08-20T00:19:31.467Z,43.70
2022-08-20T00:19:41.476Z,43.90
2022-08-20T00:19:51.472Z,42.60
2022-08-20T00:20:01.487Z,43.80
2022-08-20T00:20:11.462Z,42.20
2022-08-20T00:20:21.485Z,43.50
2022-08-20T00:20:31.465Z,42.90
2022-08-20T00:20:41.464Z,45.60
2022-08-20T00:20:51.464Z,42.00
2022-08-20T00:21:01.465Z,43.70
2022-08-20T00:21:11.501Z,44.20
2022-08-20T00:21:21.473Z,46.20
2022-08-20T00:21:31.613Z,44.10
2022-08-20T00:21:41.463Z,45.10
2022-08-20T00:21:51.466Z,48.40
2022-08-20T00:22:01.476Z,51.60
2022-08-20T00:22:11.497Z,43.90
2022-08-20T00:22:22.452Z,42.20
2022-08-20T00:22:31.494Z,44.10
2022-08-20T00:22:41.509Z,44.80
2022-08-20T00:22:51.573Z,45.90
2022-08-20T00:23:01.463Z,43.60
2022-08-20T00:23:11.451Z,42.20
2022-08-20T00:23:21.464Z,45.80
2022-08-20T00:23:31.454Z,53.20
2022-08-20T00:23:41.454Z,52.00
2022-08-20T00:23:51.454Z,41.40
2022-08-20T00:24:01.455Z,41.80
2022-08-20T00:24:11.456Z,42.60
2022-08-20T00:24:21.450Z,47.30
2022-08-20T00:24:31.452Z,44.90
2022-08-20T00:24:41.465Z,46.00
2022-08-20T00:24:51.457Z,45.90
2022-08-20T00:25:01.531Z,45.80
2022-08-20T00:25:11.457Z,46.00
2022-08-20T00:25:21.466Z,48.30
2022-08-20T00:25:31.438Z,45.70
2022-08-20T00:25:41.454Z,45.90
2022-08-20T00:25:51.455Z,46.20
2022-08-20T00:26:01.440Z,46.20
2022-08-20T00:26:11.460Z,44.90
2022-08-20T00:26:21.493Z,43.00
2022-08-20T00:26:32.423Z,43.50
2022-08-20T00:26:52.161Z,44.00
2022-08-20T00:26:52.360Z,43.90
2022-08-20T00:27:01.434Z,44.40
2022-08-20T00:27:11.442Z,46.30
2022-08-20T00:27:21.441Z,46.30
2022-08-20T00:27:31.435Z,46.20
2022-08-20T00:27:41.435Z,44.50
2022-08-20T00:27:51.483Z,44.20
2022-08-20T00:28:01.486Z,43.00
2022-08-20T00:28:11.509Z,43.20
2022-08-20T00:28:21.440Z,43.00
2022-08-20T00:28:31.430Z,41.60
2022-08-20T00:28:41.441Z,41.90
2022-08-20T00:28:51.428Z,41.00
2022-08-20T00:29:01.517Z,43.00
2022-08-20T00:29:11.421Z,42.90
2022-08-20T00:29:22.604Z,44.20
2022-08-20T00:29:31.434Z,43.70
2022-08-20T00:29:41.423Z,43.60
2022-08-20T00:29:51.423Z,43.10
2022-08-20T00:30:01.425Z,43.70
2022-08-20T00:30:11.425Z,42.50
2022-08-20T00:30:21.427Z,43.90
2022-08-20T00:30:32.417Z,43.80
2022-08-20T00:30:41.430Z,46.10
2022-08-20T00:30:51.487Z,45.10
2022-08-20T00:31:01.416Z,45.90
2022-08-20T00:31:11.453Z,44.40
2022-08-20T00:31:21.425Z,50.30
2022-08-20T00:31:31.409Z,51.00
2022-08-20T00:31:41.412Z,58.80
2022-08-20T00:31:51.425Z,51.80
2022-08-20T00:32:01.421Z,53.00
2022-08-20T00:32:11.417Z,56.30
2022-08-20T00:32:21.409Z,47.90
2022-08-20T00:32:31.409Z,46.80
2022-08-20T00:32:42.404Z,45.70
2022-08-20T00:32:51.413Z,47.10
2022-08-20T00:33:01.407Z,46.30
2022-08-20T00:33:11.957Z,45.30
2022-08-20T00:33:21.409Z,44.50
2022-08-20T00:33:32.396Z,44.40
2022-08-20T00:33:41.416Z,44.90
2022-08-20T00:33:51.484Z,45.60
2022-08-20T00:34:01.413Z,52.00
2022-08-20T00:34:11.425Z,47.00
2022-08-20T00:34:21.412Z,45.00
2022-08-20T00:34:31.400Z,44.80
2022-08-20T00:34:41.903Z,47.10
2022-08-20T00:34:51.897Z,47.30
2022-08-20T00:35:01.510Z,47.80
2022-08-20T00:35:12.930Z,53.20
2022-08-20T00:35:21.395Z,57.20
2022-08-20T00:35:31.394Z,52.90
2022-08-20T00:35:41.417Z,45.80
2022-08-20T00:35:51.399Z,47.10
2022-08-20T00:36:01.395Z,49.60
2022-08-20T00:36:11.423Z,52.00
2022-08-20T00:36:21.402Z,46.80
2022-08-20T00:36:32.532Z,46.10
2022-08-20T00:36:41.412Z,45.70
2022-08-20T00:36:51.384Z,49.80
2022-08-20T00:37:01.397Z,47.70
2022-08-20T00:37:11.385Z,50.80
2022-08-20T00:37:21.390Z,47.30
2022-08-20T00:37:31.398Z,45.80
2022-08-20T00:37:41.391Z,46.00
2022-08-20T00:37:51.440Z,50.10
2022-08-20T00:38:01.743Z,49.80
2022-08-20T00:38:11.379Z,45.70
2022-08-20T00:38:21.446Z,47.00
2022-08-20T00:38:31.398Z,46.40
2022-08-20T00:38:41.411Z,47.30
2022-08-20T00:38:51.899Z,47.30
2022-08-20T00:39:01.430Z,55.50
2022-08-20T00:39:11.385Z,59.80
2022-08-20T00:39:21.417Z,49.30
2022-08-20T00:39:31.386Z,49.60
2022-08-20T00:39:41.440Z,48.70
2022-08-20T00:39:51.457Z,57.50
2022-08-20T00:40:01.435Z,58.50
2022-08-20T00:40:22.402Z,52.30
2022-08-20T00:40:22.657Z,56.70
2022-08-20T00:40:31.389Z,47.80
2022-08-20T00:40:41.366Z,49.60
2022-08-20T00:40:51.463Z,48.10
2022-08-20T00:41:01.366Z,60.10
2022-08-20T00:41:11.371Z,55.40
2022-08-20T00:41:21.567Z,52.40
2022-08-20T00:41:31.374Z,48.50
2022-08-20T00:41:41.369Z,50.20
2022-08-20T00:41:51.369Z,49.60
2022-08-20T00:42:01.397Z,47.70
2022-08-20T00:42:11.369Z,45.30
2022-08-20T00:42:21.368Z,46.40
2022-08-20T00:42:31.373Z,50.60
2022-08-20T00:42:41.377Z,50.60
2022-08-20T00:42:51.945Z,48.50
2022-08-20T00:43:01.536Z,47.90
2022-08-20T00:43:11.446Z,46.10
2022-08-20T00:43:21.478Z,45.90
2022-08-20T00:43:31.415Z,48.10
2022-08-20T00:43:41.362Z,48.80
2022-08-20T00:43:51.355Z,58.20
2022-08-20T00:44:01.666Z,61.30
2022-08-20T00:44:11.363Z,64.10
2022-08-20T00:44:21.351Z,60.80
2022-08-20T00:44:31.371Z,48.40
2022-08-20T00:44:41.372Z,47.70
2022-08-20T00:44:51.368Z,47.10
2022-08-20T00:45:01.354Z,56.50
2022-08-20T00:45:11.380Z,58.20
2022-08-20T00:45:21.358Z,48.10
2022-08-20T00:45:31.362Z,47.10
2022-08-20T00:45:41.362Z,49.20
2022-08-20T00:45:51.357Z,61.70
2022-08-20T00:46:01.361Z,55.80
2022-08-20T00:46:11.360Z,47.40
2022-08-20T00:46:21.342Z,45.40
2022-08-20T00:46:31.896Z,45.80
2022-08-20T00:46:41.338Z,47.50
2022-08-20T00:46:51.358Z,52.80
2022-08-20T00:47:02.013Z,49.40
2022-08-20T00:47:11.915Z,48.10
2022-08-20T00:47:21.343Z,45.50
2022-08-20T00:47:31.352Z,48.20
2022-08-20T00:47:41.333Z,52.10
2022-08-20T00:47:51.811Z,59.90
2022-08-20T00:48:01.342Z,55.30
2022-08-20T00:48:11.395Z,58.90
2022-08-20T00:48:21.342Z,55.70
2022-08-20T00:48:31.348Z,52.70
2022-08-20T00:48:41.385Z,47.90
2022-08-20T00:48:51.371Z,48.10
2022-08-20T00:49:01.668Z,50.40
2022-08-20T00:49:11.346Z,50.40
2022-08-20T00:49:21.333Z,52.70
2022-08-20T00:49:31.354Z,46.20
2022-08-20T00:49:41.332Z,46.20
2022-08-20T00:49:51.338Z,53.40
2022-08-20T00:50:01.326Z,71.70
2022-08-20T00:50:11.329Z,63.70
2022-08-20T00:50:21.341Z,60.40
2022-08-20T00:50:31.413Z,57.80
2022-08-20T00:50:41.320Z,62.70
2022-08-20T00:50:51.333Z,66.20
2022-08-20T00:51:01.903Z,70.80
2022-08-20T00:51:11.926Z,67.80
2022-08-20T00:51:21.431Z,61.60
2022-08-20T00:51:31.916Z,49.10
2022-08-20T00:51:41.332Z,48.20
2022-08-20T00:51:51.328Z,48.70
2022-08-20T00:52:01.316Z,49.50
2022-08-20T00:52:11.332Z,57.00
2022-08-20T00:52:21.316Z,52.80
2022-08-20T00:52:31.340Z,54.40
2022-08-20T00:52:41.311Z,49.30
2022-08-20T00:52:51.317Z,50.50
2022-08-20T00:53:01.310Z,49.40
2022-08-20T00:53:11.346Z,50.60
2022-08-20T00:53:21.308Z,55.90
2022-08-20T00:53:31.311Z,54.70
2022-08-20T00:53:41.336Z,57.50
2022-08-20T00:53:51.455Z,50.20
2022-08-20T00:54:01.311Z,51.70
2022-08-20T00:54:11.337Z,51.80
2022-08-20T00:54:21.305Z,49.70
2022-08-20T00:54:31.322Z,50.40
2022-08-20T00:54:41.388Z,49.50
2022-08-20T00:54:51.310Z,59.60
2022-08-20T00:55:01.316Z,59.50
2022-08-20T00:55:11.943Z,61.90
2022-08-20T00:55:21.360Z,52.40
2022-08-20T00:55:31.717Z,58.00
2022-08-20T00:55:41.302Z,60.70
2022-08-20T00:55:51.321Z,66.00
2022-08-20T00:56:01.310Z,56.30
2022-08-20T00:56:11.302Z,54.50
2022-08-20T00:56:21.292Z,51.30
2022-08-20T00:56:31.321Z,57.30
2022-08-20T00:56:41.350Z,63.10
2022-08-20T00:56:51.294Z,62.80
2022-08-20T00:57:01.305Z,54.60
2022-08-20T00:57:11.298Z,47.70
2022-08-20T00:57:21.342Z,47.80
2022-08-20T00:57:44.541Z,49.40
2022-08-20T00:57:53.297Z,59.10
2022-08-20T00:58:01.426Z,63.90
2022-08-20T00:58:02.063Z,63.70
2022-08-20T00:58:11.288Z,56.90
2022-08-20T00:58:21.398Z,61.30
2022-08-20T00:58:31.286Z,67.10
2022-08-20T00:58:41.288Z,75.10
2022-08-20T00:58:51.297Z,75.10
2022-08-20T00:59:01.360Z,66.40
2022-08-20T00:59:11.304Z,67.40
2022-08-20T00:59:21.915Z,60.30
2022-08-20T00:59:31.368Z,54.50
2022-08-20T00:59:41.281Z,54.60
2022-08-20T00:59:51.291Z,48.90
2022-08-20T01:00:01.302Z,49.90
2022-08-20T01:00:11.316Z,49.60
2022-08-20T01:00:21.279Z,52.00
2022-08-20T01:00:31.286Z,60.20
2022-08-20T01:00:41.277Z,56.50
2022-08-20T01:00:51.276Z,60.40
2022-08-20T01:01:01.274Z,57.20
2022-08-20T01:01:11.277Z,59.60
2022-08-20T01:01:21.295Z,60.80
2022-08-20T01:01:31.321Z,62.10
2022-08-20T01:01:55.310Z,65.10
2022-08-20T01:01:55.454Z,66.60
2022-08-20T01:02:01.340Z,58.50
2022-08-20T01:02:11.394Z,56.60
2022-08-20T01:02:21.317Z,65.50
2022-08-20T01:02:31.266Z,74.10
2022-08-20T01:02:41.287Z,61.20
2022-08-20T01:02:51.266Z,52.90
2022-08-20T01:03:01.273Z,52.50
2022-08-20T01:03:11.272Z,64.10
2022-08-20T01:03:21.281Z,67.00
2022-08-20T01:03:31.318Z,64.10
2022-08-20T01:03:41.355Z,65.50
2022-08-20T01:03:51.273Z,62.50
2022-08-20T01:04:01.255Z,62.30
2022-08-20T01:04:11.306Z,55.50
2022-08-20T01:04:21.380Z,62.00
2022-08-20T01:04:31.263Z,64.80
2022-08-20T01:04:41.349Z,68.20
2022-08-20T01:04:51.258Z,63.50
2022-08-20T01:05:01.265Z,56.60
2022-08-20T01:05:11.271Z,53.40
2022-08-20T01:05:21.250Z,54.90
2022-08-20T01:05:31.275Z,60.50
2022-08-20T01:05:41.248Z,67.90
2022-08-20T01:05:51.257Z,70.40
2022-08-20T01:06:01.248Z,70.00
2022-08-20T01:06:11.272Z,72.40
2022-08-20T01:06:21.254Z,69.20
2022-08-20T01:06:31.250Z,69.80
2022-08-20T01:06:41.248Z,70.10
2022-08-20T01:06:51.261Z,66.50
2022-08-20T01:07:01.241Z,64.70
2022-08-20T01:07:11.934Z,57.90
2022-08-20T01:07:21.250Z,65.10
2022-08-20T01:07:31.259Z,68.10
2022-08-20T01:07:41.345Z,68.50
2022-08-20T01:07:51.252Z,60.40
2022-08-20T01:08:01.260Z,65.50
2022-08-20T01:08:11.239Z,65.90
2022-08-20T01:08:21.255Z,65.00
2022-08-20T01:08:31.917Z,57.30
2022-08-20T01:08:41.244Z,54.60
2022-08-20T01:08:51.248Z,57.80
2022-08-20T01:09:01.240Z,65.80
2022-08-20T01:09:11.243Z,65.50
2022-08-20T01:09:33.460Z,66.80
2022-08-20T01:09:50.596Z,61.30
2022-08-20T01:09:57.834Z,64.50
2022-08-20T01:09:59.353Z,62.20
2022-08-20T01:10:01.244Z,64.00
2022-08-20T01:10:11.234Z,70.50
2022-08-20T01:10:21.227Z,69.90
2022-08-20T01:10:31.251Z,69.50
2022-08-20T01:10:41.227Z,62.00
2022-08-20T01:10:51.229Z,71.90
2022-08-20T01:11:01.227Z,66.40
2022-08-20T01:11:11.230Z,72.60
2022-08-20T01:11:21.223Z,64.20
2022-08-20T01:11:31.253Z,67.50
2022-08-20T01:11:41.919Z,63.70
2022-08-20T01:11:51.309Z,71.00
2022-08-20T01:12:01.224Z,72.20
2022-08-20T01:12:11.220Z,75.00
2022-08-20T01:12:21.217Z,75.70
2022-08-20T01:12:31.229Z,74.20
2022-08-20T01:12:41.217Z,72.20
2022-08-20T01:12:54.916Z,71.70
2022-08-20T01:13:01.239Z,72.60
2022-08-20T01:13:11.297Z,71.20
2022-08-20T01:13:21.221Z,70.50
2022-08-20T01:13:31.234Z,71.20
2022-08-20T01:13:41.214Z,77.30
2022-08-20T01:13:51.228Z,73.70
2022-08-20T01:14:01.217Z,73.90
2022-08-20T01:14:11.219Z,66.90
2022-08-20T01:14:21.219Z,70.90
2022-08-20T01:14:31.272Z,68.90
2022-08-20T01:14:41.211Z,73.80
2022-08-20T01:14:51.232Z,69.90
2022-08-20T01:15:01.204Z,66.20
2022-08-20T01:15:11.210Z,64.00
2022-08-20T01:15:21.256Z,62.70
2022-08-20T01:15:31.340Z,67.10
2022-08-20T01:15:43.344Z,67.70
2022-08-20T01:15:51.262Z,68.70
2022-08-20T01:16:01.293Z,69.50
2022-08-20T01:16:11.204Z,71.60
2022-08-20T01:16:21.198Z,73.80
2022-08-20T01:16:31.923Z,67.90
2022-08-20T01:16:41.198Z,61.70
2022-08-20T01:16:51.205Z,58.50
2022-08-20T01:17:01.200Z,64.60
2022-08-20T01:17:11.813Z,66.80
2022-08-20T01:17:21.193Z,71.30
2022-08-20T01:17:31.210Z,69.90
2022-08-20T01:17:41.910Z,72.00
2022-08-20T01:17:51.199Z,69.40
2022-08-20T01:18:01.191Z,74.50
2022-08-20T01:18:11.280Z,75.70
2022-08-20T01:18:21.189Z,80.70
2022-08-20T01:18:31.194Z,75.20
2022-08-20T01:18:41.210Z,77.50
2022-08-20T01:18:51.197Z,70.80
2022-08-20T01:19:01.188Z,74.90
2022-08-20T01:19:29.394Z,74.20
2022-08-20T01:19:29.665Z,77.40
2022-08-20T01:19:31.191Z,80.40
2022-08-20T01:19:41.241Z,82.30
2022-08-20T01:19:51.915Z,83.00
2022-08-20T01:20:01.291Z,80.50
2022-08-20T01:20:11.187Z,75.20
2022-08-20T01:20:21.182Z,78.50
2022-08-20T01:20:31.183Z,78.10
2022-08-20T01:20:41.178Z,83.60
2022-08-20T01:20:51.208Z,75.80
2022-08-20T01:21:01.188Z,73.60
2022-08-20T01:21:11.179Z,68.50
2022-08-20T01:21:21.175Z,65.90
2022-08-20T01:21:31.194Z,65.40
2022-08-20T01:21:41.178Z,63.30
2022-08-20T01:21:51.923Z,69.70
2022-08-20T01:22:01.182Z,68.80
2022-08-20T01:22:11.175Z,67.10
2022-08-20T01:22:21.169Z,65.10
2022-08-20T01:22:31.206Z,68.20
2022-08-20T01:22:41.172Z,78.10
2022-08-20T01:22:51.169Z,80.50
2022-08-20T01:23:01.198Z,79.70
2022-08-20T01:23:11.339Z,74.70
2022-08-20T01:23:21.178Z,79.40
2022-08-20T01:23:31.168Z,80.90
2022-08-20T01:23:41.185Z,76.10
2022-08-20T01:23:51.180Z,76.70
2022-08-20T01:24:01.239Z,84.60
2022-08-20T01:24:11.162Z,89.60
2022-08-20T01:24:21.183Z,89.00
2022-08-20T01:24:31.159Z,75.50
2022-08-20T01:24:41.168Z,76.60
2022-08-20T01:24:51.225Z,71.20
2022-08-20T01:25:01.161Z,78.40
2022-08-20T01:25:11.167Z,82.20
2022-08-20T01:25:21.162Z,88.70
2022-08-20T01:25:31.269Z,93.00
2022-08-20T01:25:41.162Z,91.50
2022-08-20T01:25:51.176Z,85.70
2022-08-20T01:26:01.161Z,82.90
2022-08-20T01:26:11.156Z,82.10
2022-08-20T01:26:21.153Z,94.20
2022-08-20T01:26:31.886Z,92.10
2022-08-20T01:26:41.160Z,92.90
2022-08-20T01:26:51.930Z,84.40
2022-08-20T01:27:01.150Z,83.60
2022-08-20T01:27:11.161Z,85.90
2022-08-20T01:27:21.151Z,83.60
2022-08-20T01:27:31.154Z,86.30
2022-08-20T01:27:42.782Z,81.70
2022-08-20T01:27:53.230Z,84.70
2022-08-20T01:28:02.119Z,86.10
2022-08-20T01:28:11.152Z,87.30
2022-08-20T01:28:21.146Z,83.40
2022-08-20T01:28:31.146Z,84.00
2022-08-20T01:28:41.174Z,86.90
2022-08-20T01:28:51.139Z,90.40
2022-08-20T01:29:01.141Z,86.40
2022-08-20T01:29:11.145Z,87.30
2022-08-20T01:29:21.142Z,86.30
2022-08-20T01:29:31.916Z,85.60
2022-08-20T01:29:41.138Z,80.60
2022-08-20T01:29:51.134Z,82.40
2022-08-20T01:30:01.176Z,83.10
2022-08-20T01:30:11.137Z,89.00
2022-08-20T01:30:21.138Z,83.20
2022-08-20T01:30:31.152Z,83.30
2022-08-20T01:30:41.134Z,76.30
2022-08-20T01:30:51.132Z,80.20
2022-08-20T01:31:01.141Z,76.60
2022-08-20T01:31:11.127Z,78.40
2022-08-20T01:31:21.134Z,80.20
2022-08-20T01:31:31.149Z,88.10
2022-08-20T01:31:41.132Z,88.40
2022-08-20T01:31:51.128Z,86.00
2022-08-20T01:32:01.925Z,82.10
2022-08-20T01:32:11.167Z,81.20
2022-08-20T01:32:21.236Z,89.80
2022-08-20T01:32:31.121Z,87.90
2022-08-20T01:32:41.127Z,88.30
2022-08-20T01:32:51.133Z,74.90
2022-08-20T01:33:01.122Z,78.70
2022-08-20T01:33:11.233Z,75.80
2022-08-20T01:33:21.193Z,82.20
2022-08-20T01:33:31.117Z,81.30
2022-08-20T01:33:41.121Z,87.80
2022-08-20T01:33:51.138Z,90.30
2022-08-20T01:34:01.124Z,83.80
2022-08-20T01:34:11.128Z,78.50
2022-08-20T01:34:21.129Z,74.70
2022-08-20T01:34:31.115Z,82.20
2022-08-20T01:34:41.134Z,79.30
2022-08-20T01:34:51.156Z,80.60
2022-08-20T01:35:01.124Z,77.80
2022-08-20T01:35:11.152Z,83.00
2022-08-20T01:35:21.216Z,80.50
2022-08-20T01:35:31.115Z,82.40
2022-08-20T01:35:41.123Z,78.20
2022-08-20T01:35:51.113Z,76.40
2022-08-20T01:36:01.135Z,77.10
2022-08-20T01:36:12.367Z,82.90
2022-08-20T01:36:21.188Z,84.70
2022-08-20T01:36:31.104Z,82.50
2022-08-20T01:36:45.912Z,81.20
2022-08-20T01:36:51.107Z,83.70
2022-08-20T01:37:01.106Z,81.30
2022-08-20T01:37:11.101Z,84.00
2022-08-20T01:37:21.107Z,83.00
2022-08-20T01:37:31.443Z,83.80
2022-08-20T01:37:41.104Z,78.10
2022-08-20T01:37:51.097Z,83.80
2022-08-20T01:38:01.103Z,88.70
2022-08-20T01:38:11.920Z,88.20
2022-08-20T01:38:21.104Z,88.80
2022-08-20T01:38:31.221Z,83.70
2022-08-20T01:38:41.104Z,89.10
2022-08-20T01:38:54.210Z,84.40
2022-08-20T01:39:01.106Z,89.50
2022-08-20T01:39:11.090Z,90.60
2022-08-20T01:39:21.100Z,90.90
2022-08-20T01:39:31.100Z,89.80
2022-08-20T01:39:41.143Z,81.80
2022-08-20T01:39:51.176Z,76.00
2022-08-20T01:40:01.155Z,77.00
2022-08-20T01:40:12.020Z,85.80
2022-08-20T01:40:21.405Z,96.30
2022-08-20T01:40:31.086Z,96.30
2022-08-20T01:40:41.088Z,90.50
2022-08-20T01:40:51.104Z,89.20
2022-08-20T01:41:01.138Z,96.10
2022-08-20T01:41:11.085Z,99.60
2022-08-20T01:41:23.495Z,100.10
2022-08-20T01:41:31.080Z,92.00
2022-08-20T01:41:41.083Z,92.80
2022-08-20T01:41:51.102Z,89.00
2022-08-20T01:42:01.082Z,90.40
2022-08-20T01:42:11.077Z,88.00
2022-08-20T01:42:21.086Z,85.10
2022-08-20T01:42:31.079Z,83.20
2022-08-20T01:42:52.793Z,87.10
2022-08-20T01:42:54.006Z,86.90
2022-08-20T01:43:01.080Z,90.40
2022-08-20T01:43:11.166Z,85.70
2022-08-20T01:43:21.402Z,86.90
2022-08-20T01:43:31.072Z,84.10
2022-08-20T01:43:41.074Z,82.00
2022-08-20T01:43:51.105Z,87.00
2022-08-20T01:44:01.074Z,87.30
2022-08-20T01:44:11.084Z,90.10
2022-08-20T01:44:21.933Z,87.50
2022-08-20T01:44:31.189Z,92.10
2022-08-20T01:44:41.073Z,93.30
2022-08-20T01:44:51.067Z,91.50
2022-08-20T01:45:01.770Z,82.50
2022-08-20T01:45:11.075Z,82.30
2022-08-20T01:45:21.068Z,81.60
2022-08-20T01:45:31.119Z,87.40
2022-08-20T01:45:41.079Z,84.60
2022-08-20T01:45:51.065Z,87.90
2022-08-20T01:46:01.067Z,90.40
2022-08-20T01:46:11.058Z,98.30
2022-08-20T01:46:21.060Z,97.40
2022-08-20T01:46:31.058Z,98.70
2022-08-20T01:46:43.767Z,92.90
2022-08-20T01:46:51.094Z,94.50
2022-08-20T01:47:01.071Z,89.40
2022-08-20T01:47:11.069Z,94.20
2022-08-20T01:47:21.063Z,92.90
2022-08-20T01:47:31.067Z,90.90
2022-08-20T01:47:41.058Z,85.50
2022-08-20T01:47:51.064Z,88.20
2022-08-20T01:48:01.141Z,90.80
2022-08-20T01:48:11.054Z,93.60
2022-08-20T01:48:21.117Z,91.10
2022-08-20T01:48:31.937Z,90.50
2022-08-20T01:48:41.050Z,90.30
2022-08-20T01:48:51.057Z,87.80
2022-08-20T01:49:01.056Z,89.20
2022-08-20T01:49:13.681Z,91.10
2022-08-20T01:49:23.134Z,94.10
2022-08-20T01:49:31.928Z,94.60
2022-08-20T01:49:41.047Z,94.10
2022-08-20T01:49:51.049Z,92.40
2022-08-20T01:50:01.114Z,94.30
2022-08-20T01:50:11.067Z,93.40
2022-08-20T01:50:21.057Z,94.10
2022-08-20T01:50:31.082Z,90.70
2022-08-20T01:50:41.123Z,93.70
2022-08-20T01:50:51.053Z,96.50
2022-08-20T01:51:01.052Z,97.50
2022-08-20T01:51:11.039Z,92.20
2022-08-20T01:51:21.044Z,88.20
2022-08-20T01:51:31.047Z,94.50
2022-08-20T01:51:41.045Z,99.10
2022-08-20T01:51:51.034Z,107.80
2022-08-20T01:52:01.044Z,106.10
2022-08-20T01:52:11.029Z,105.90
2022-08-20T01:52:21.215Z,104.40
2022-08-20T01:52:31.939Z,100.10
2022-08-20T01:52:41.089Z,99.00
2022-08-20T01:52:51.030Z,93.60
2022-08-20T01:53:01.035Z,96.10
2022-08-20T01:53:11.037Z,98.20
2022-08-20T01:53:21.040Z,97.30
2022-08-20T01:53:31.026Z,99.20
2022-08-20T01:53:41.040Z,99.60
2022-08-20T01:53:51.016Z,100.30
2022-08-20T01:54:01.038Z,99.40
2022-08-20T01:54:11.028Z,100.40
2022-08-20T01:54:21.024Z,104.70
2022-08-20T01:54:31.937Z,107.20
2022-08-20T01:54:41.033Z,104.60
2022-08-20T01:54:51.033Z,105.90
2022-08-20T01:55:01.019Z,98.00
2022-08-20T01:55:11.017Z,99.90
2022-08-20T01:55:21.045Z,101.20
2022-08-20T01:55:31.021Z,108.00
2022-08-20T01:55:41.097Z,106.00
2022-08-20T01:55:51.058Z,104.40
2022-08-20T01:56:01.020Z,101.70
2022-08-20T01:56:11.023Z,104.00
2022-08-20T01:56:21.015Z,105.60
2022-08-20T01:56:31.022Z,105.70
2022-08-20T01:56:41.940Z,107.50
2022-08-20T01:56:51.101Z,107.10
2022-08-20T01:57:01.030Z,109.80
2022-08-20T01:57:11.009Z,107.60
2022-08-20T01:57:21.036Z,104.90
2022-08-20T01:57:31.027Z,98.70
2022-08-20T01:57:41.013Z,100.20
2022-08-20T01:57:51.013Z,100.80
2022-08-20T01:58:01.022Z,105.50
2022-08-20T01:58:11.006Z,104.50
2022-08-20T01:58:21.038Z,103.40
2022-08-20T01:58:31.030Z,103.60
2022-08-20T01:58:41.010Z,104.80
2022-08-20T01:58:54.836Z,107.10
2022-08-20T01:59:01.006Z,109.20
2022-08-20T01:59:11.001Z,108.20
2022-08-20T01:59:21.020Z,108.60
2022-08-20T01:59:31.931Z,112.70
2022-08-20T01:59:41.111Z,110.80
2022-08-20T01:59:51.007Z,109.10
2022-08-20T02:00:01.002Z,112.80
2022-08-20T02:00:11.112Z,116.00
2022-08-20T02:00:22.086Z,116.70
2022-08-20T02:00:30.993Z,112.50
2022-08-20T02:00:41.024Z,113.90
2022-08-20T02:00:51.132Z,117.80
2022-08-20T02:01:01.940Z,112.10
2022-08-20T02:01:11.003Z,110.10
2022-08-20T02:01:21.252Z,107.10
2022-08-20T02:01:31.048Z,113.80
2022-08-20T02:01:46.453Z,116.90
2022-08-20T02:01:51.027Z,119.20
2022-08-20T02:02:01.106Z,114.70
2022-08-20T02:02:11.010Z,117.30
2022-08-20T02:02:20.987Z,116.70
2022-08-20T02:02:30.983Z,122.00
2022-08-20T02:02:41.011Z,120.90
2022-08-20T02:02:50.982Z,118.80
2022-08-20T02:03:00.988Z,117.70
2022-08-20T02:03:11.003Z,114.30
2022-08-20T02:03:21.993Z,117.90
2022-08-20T02:03:36.577Z,118.10
2022-08-20T02:03:44.647Z,118.80
2022-08-20T02:03:50.979Z,115.30
2022-08-20T02:04:01.017Z,111.20
2022-08-20T02:04:15.199Z,112.10
2022-08-20T02:04:20.984Z,117.90
2022-08-20T02:04:31.001Z,123.00
2022-08-20T02:04:40.992Z,128.30
2022-08-20T02:04:51.029Z,128.50
2022-08-20T02:05:01.085Z,124.90
2022-08-20T02:05:10.978Z,124.30
2022-08-20T02:05:20.969Z,120.80
2022-08-20T02:05:30.988Z,123.20
2022-08-20T02:05:40.971Z,121.10
2022-08-20T02:05:50.999Z,125.80
2022-08-20T02:06:00.989Z,131.00
2022-08-20T02:06:11.020Z,132.30
2022-08-20T02:06:20.981Z,128.00
2022-08-20T02:06:30.982Z,121.70
2022-08-20T02:06:40.965Z,120.20
2022-08-20T02:06:56.875Z,125.10
2022-08-20T02:07:00.967Z,126.80
2022-08-20T02:07:10.967Z,124.20
2022-08-20T02:07:20.973Z,124.40
2022-08-20T02:07:30.967Z,128.40
2022-08-20T02:07:40.982Z,133.10
2022-08-20T02:07:50.981Z,131.20
2022-08-20T02:08:00.965Z,129.50
2022-08-20T02:08:10.963Z,131.90